createdAt,value
2018-05-25T00:01:56.095Z,13.20
2018-05-25T00:04:25.094Z,13.20
2018-05-25T00:06:53.985Z,13.20
2018-05-25T00:09:22.997Z,13.10
2018-05-25T00:11:51.887Z,13.10
2018-05-25T00:14:20.827Z,13.00
2018-05-25T00:16:50.483Z,13.00
2018-05-25T00:19:19.579Z,13.00
2018-05-25T00:21:48.568Z,12.90
2018-05-25T00:24:17.457Z,12.90
2018-05-25T00:26:46.300Z,12.90
2018-05-25T00:29:15.190Z,12.90
2018-05-25T00:31:44.083Z,12.90
2018-05-25T00:34:13.123Z,12.80
2018-05-25T00:36:42.115Z,12.80
2018-05-25T00:39:11.003Z,12.80
2018-05-25T00:41:39.959Z,12.80
2018-05-25T00:44:08.878Z,12.80
2018-05-25T00:46:37.835Z,12.80
2018-05-25T00:49:06.732Z,12.70
2018-05-25T00:51:35.683Z,12.70
2018-05-25T00:54:05.466Z,12.60
2018-05-25T00:56:34.454Z,12.60
2018-05-25T00:59:03.351Z,12.60
2018-05-25T01:01:32.325Z,12.60
2018-05-25T01:04:01.319Z,12.50
2018-05-25T01:06:30.422Z,12.50
2018-05-25T01:08:59.326Z,12.50
2018-05-25T01:11:29.076Z,12.50
2018-05-25T01:13:57.972Z,12.40
2018-05-25T01:16:26.896Z,12.40
2018-05-25T01:18:55.760Z,12.50
2018-05-25T01:21:24.683Z,12.40
2018-05-25T01:23:53.687Z,12.40
2018-05-25T01:26:22.564Z,12.40
2018-05-25T01:28:51.551Z,12.40
2018-05-25T01:31:20.429Z,12.40
2018-05-25T01:33:49.325Z,12.40
2018-05-25T01:36:18.211Z,12.40
2018-05-25T01:38:47.203Z,12.30
2018-05-25T01:41:16.068Z,12.30
2018-05-25T01:43:44.979Z,12.30
2018-05-25T01:46:13.912Z,12.30
2018-05-25T01:48:42.783Z,12.30
2018-05-25T01:51:12.437Z,12.20
2018-05-25T01:53:41.320Z,12.20
2018-05-25T01:56:10.233Z,12.20
2018-05-25T01:58:39.107Z,12.10
2018-05-25T02:01:08.023Z,12.10
2018-05-25T02:03:37.014Z,12.10
2018-05-25T02:06:05.900Z,12.10
2018-05-25T02:08:34.807Z,12.10
2018-05-25T02:11:03.693Z,12.10
2018-05-25T02:13:32.676Z,12.00
2018-05-25T02:16:01.587Z,12.00
2018-05-25T02:18:30.469Z,12.00
2018-05-25T02:20:59.344Z,12.00
2018-05-25T02:23:28.332Z,12.00
2018-05-25T02:25:57.220Z,12.00
2018-05-25T02:28:26.134Z,11.90
2018-05-25T02:30:54.981Z,11.90
2018-05-25T02:33:23.870Z,11.90
2018-05-25T02:35:52.750Z,11.90
2018-05-25T02:38:21.640Z,11.90
2018-05-25T02:40:50.657Z,11.90
2018-05-25T02:43:19.566Z,11.90
2018-05-25T02:45:48.543Z,11.90
2018-05-25T02:48:17.430Z,11.80
2018-05-25T02:50:46.423Z,11.80
2018-05-25T02:53:15.325Z,11.80
2018-05-25T02:55:44.242Z,11.80
2018-05-25T02:58:13.882Z,11.70
2018-05-25T03:00:42.899Z,11.70
2018-05-25T03:03:11.797Z,11.70
2018-05-25T03:05:40.690Z,11.70
2018-05-25T03:08:09.588Z,11.60
2018-05-25T03:10:39.273Z,11.60
2018-05-25T03:13:09.944Z,11.60
2018-05-25T03:15:38.840Z,11.60
2018-05-25T03:18:08.604Z,11.60
2018-05-25T03:20:37.491Z,11.50
2018-05-25T03:23:06.484Z,11.60
2018-05-25T03:25:35.371Z,11.50
2018-05-25T03:28:04.363Z,11.50
2018-05-25T03:30:33.299Z,11.50
2018-05-25T03:33:02.187Z,11.50
2018-05-25T03:35:31.543Z,11.50
2018-05-25T03:38:00.601Z,11.50
2018-05-25T03:40:29.528Z,11.50
2018-05-25T03:42:58.400Z,11.50
2018-05-25T03:45:27.284Z,11.50
2018-05-25T03:47:56.268Z,11.50
2018-05-25T03:50:25.250Z,11.50
2018-05-25T03:52:54.163Z,11.50
2018-05-25T03:55:23.088Z,11.50
2018-05-25T03:57:52.000Z,11.50
2018-05-25T04:00:32.850Z,11.50
2018-05-25T04:03:01.801Z,11.50
2018-05-25T04:05:30.701Z,11.60
2018-05-25T04:07:59.592Z,11.60
2018-05-25T04:10:28.469Z,11.60
2018-05-25T04:12:57.473Z,11.70
2018-05-25T04:15:26.364Z,11.70
2018-05-25T04:17:55.263Z,11.70
2018-05-25T04:20:24.962Z,11.90
2018-05-25T04:22:53.826Z,11.90
2018-05-25T04:25:22.759Z,12.00
2018-05-25T04:27:51.634Z,12.00
2018-05-25T04:30:20.620Z,12.10
2018-05-25T04:32:49.522Z,12.20
2018-05-25T04:35:20.046Z,12.30
2018-05-25T04:37:48.915Z,12.30
2018-05-25T04:40:17.916Z,12.40
2018-05-25T04:42:46.815Z,12.50
2018-05-25T04:45:15.784Z,12.60
2018-05-25T04:47:44.700Z,12.70
2018-05-25T04:50:13.579Z,12.80
2018-05-25T04:52:42.566Z,12.90
2018-05-25T04:55:11.469Z,12.90
2018-05-25T04:57:40.363Z,13.00
2018-05-25T05:00:09.279Z,13.10
2018-05-25T05:02:38.283Z,13.20
2018-05-25T05:05:07.169Z,13.30
2018-05-25T05:07:36.207Z,13.40
2018-05-25T05:10:05.098Z,13.50
2018-05-25T05:12:33.988Z,13.60
2018-05-25T05:15:02.836Z,13.70
2018-05-25T05:17:31.744Z,13.70
2018-05-25T05:20:00.719Z,13.80
2018-05-25T05:22:29.606Z,13.90
2018-05-25T05:24:58.493Z,14.00
2018-05-25T05:27:27.406Z,14.10
2018-05-25T05:29:56.312Z,14.10
2018-05-25T05:32:25.304Z,14.20
2018-05-25T05:34:54.155Z,14.30
2018-05-25T05:37:23.081Z,14.40
2018-05-25T05:39:52.064Z,14.50
2018-05-25T05:42:20.947Z,14.60
2018-05-25T05:44:49.850Z,14.70
2018-05-25T05:47:18.740Z,14.80
2018-05-25T05:49:47.639Z,14.90
2018-05-25T05:52:16.519Z,15.00
2018-05-25T05:54:45.485Z,15.00
2018-05-25T05:57:14.370Z,15.20
2018-05-25T05:59:43.463Z,15.30
2018-05-25T06:02:12.372Z,15.30
2018-05-25T06:04:41.279Z,15.40
2018-05-25T06:07:10.135Z,15.50
2018-05-25T06:09:39.053Z,15.60
2018-05-25T06:12:07.991Z,15.60
2018-05-25T06:14:36.874Z,15.70
2018-05-25T06:17:06.505Z,15.80
2018-05-25T06:19:35.423Z,15.80
2018-05-25T06:22:04.379Z,15.90
2018-05-25T06:24:33.306Z,15.90
2018-05-25T06:27:02.200Z,16.00
2018-05-25T06:29:31.062Z,16.10
2018-05-25T06:32:00.075Z,16.20
2018-05-25T06:34:29.070Z,16.30
2018-05-25T06:36:58.052Z,16.30
2018-05-25T06:39:27.049Z,16.40
2018-05-25T06:41:56.040Z,16.50
2018-05-25T06:44:24.954Z,16.60
2018-05-25T06:46:53.903Z,16.60
2018-05-25T06:49:22.793Z,16.70
2018-05-25T06:51:51.704Z,16.80
2018-05-25T06:54:20.698Z,16.80
2018-05-25T06:56:49.695Z,16.90
2018-05-25T06:59:18.568Z,16.90
2018-05-25T07:01:47.448Z,16.90
2018-05-25T07:04:16.340Z,17.00
2018-05-25T07:06:45.354Z,17.00
2018-05-25T07:09:15.159Z,17.00
2018-05-25T07:11:44.144Z,17.10
2018-05-25T07:14:13.136Z,17.20
2018-05-25T07:16:41.992Z,17.20
2018-05-25T07:19:10.955Z,17.30
2018-05-25T07:21:40.777Z,17.40
2018-05-25T07:24:09.719Z,17.40
2018-05-25T07:26:38.600Z,17.40
2018-05-25T07:29:07.519Z,17.50
2018-05-25T07:31:36.407Z,17.50
2018-05-25T07:34:06.091Z,17.70
2018-05-25T07:36:35.089Z,17.60
2018-05-25T07:39:03.989Z,17.70
2018-05-25T07:41:33.680Z,17.80
2018-05-25T07:44:02.566Z,17.70
2018-05-25T07:46:32.276Z,17.80
2018-05-25T07:49:01.295Z,17.80
2018-05-25T07:51:30.213Z,17.90
2018-05-25T07:53:59.101Z,18.00
2018-05-25T07:56:27.987Z,18.00
2018-05-25T07:58:57.079Z,18.10
2018-05-25T08:01:26.030Z,18.10
2018-05-25T08:03:54.948Z,18.20
2018-05-25T08:06:24.634Z,18.30
2018-05-25T08:08:53.510Z,18.30
2018-05-25T08:11:23.446Z,18.40
2018-05-25T08:13:52.328Z,18.40
2018-05-25T08:16:21.261Z,18.50
2018-05-25T08:18:50.913Z,18.50
2018-05-25T08:21:19.831Z,18.50
2018-05-25T08:23:48.791Z,18.60
2018-05-25T08:26:17.684Z,18.60
2018-05-25T08:28:46.648Z,18.70
2018-05-25T08:31:15.523Z,18.70
2018-05-25T08:33:44.499Z,18.80
2018-05-25T08:36:13.426Z,18.90
2018-05-25T08:38:42.331Z,18.90
2018-05-25T08:41:11.272Z,19.10
2018-05-25T08:43:40.919Z,19.20
2018-05-25T08:46:09.925Z,19.10
2018-05-25T08:48:38.913Z,19.20
2018-05-25T08:51:07.855Z,19.30
2018-05-25T08:53:36.764Z,19.40
2018-05-25T08:56:05.699Z,19.50
2018-05-25T08:58:34.582Z,19.50
2018-05-25T09:01:03.624Z,19.60
2018-05-25T09:03:32.554Z,19.70
2018-05-25T09:06:01.546Z,19.80
2018-05-25T09:08:30.505Z,19.90
2018-05-25T09:11:00.169Z,20.10
2018-05-25T09:13:29.848Z,20.20
2018-05-25T09:15:58.732Z,20.10
2018-05-25T09:18:27.646Z,20.20
2018-05-25T09:20:58.068Z,20.40
2018-05-25T09:23:26.963Z,20.30
2018-05-25T09:25:55.937Z,20.40
2018-05-25T09:28:24.824Z,20.50
2018-05-25T09:30:53.767Z,20.60
2018-05-25T09:33:22.678Z,20.80
2018-05-25T09:35:51.659Z,20.90
2018-05-25T09:38:20.559Z,20.90
2018-05-25T09:40:49.411Z,21.10
2018-05-25T09:43:19.092Z,21.30
2018-05-25T09:45:47.970Z,21.20
2018-05-25T09:48:16.966Z,21.40
2018-05-25T09:50:45.941Z,21.60
2018-05-25T09:53:14.842Z,21.70
2018-05-25T09:55:43.691Z,21.90
2018-05-25T09:58:12.623Z,22.00
2018-05-25T10:00:41.515Z,22.00
2018-05-25T10:03:10.453Z,22.10
2018-05-25T10:05:39.395Z,22.20
2018-05-25T10:08:08.451Z,22.20
2018-05-25T10:10:37.348Z,22.40
2018-05-25T10:13:06.223Z,22.50
2018-05-25T10:15:35.099Z,22.40
2018-05-25T10:18:04.153Z,22.30
2018-05-25T10:20:33.034Z,22.30
2018-05-25T10:23:02.029Z,22.40
2018-05-25T10:25:30.897Z,22.50
2018-05-25T10:27:59.767Z,22.70
2018-05-25T10:30:28.768Z,22.80
2018-05-25T10:32:57.655Z,23.00
2018-05-25T10:35:26.560Z,23.00
2018-05-25T10:37:55.469Z,23.10
2018-05-25T10:40:24.460Z,23.30
2018-05-25T10:42:53.451Z,23.30
2018-05-25T10:45:22.325Z,23.40
2018-05-25T10:47:51.200Z,23.40
2018-05-25T10:50:20.117Z,23.50
2018-05-25T10:52:49.008Z,23.60
2018-05-25T10:55:17.902Z,23.60
2018-05-25T10:57:46.781Z,23.60
2018-05-25T11:00:15.687Z,23.80
2018-05-25T11:02:44.627Z,23.90
2018-05-25T11:05:14.259Z,24.00
2018-05-25T11:07:43.133Z,24.00
2018-05-25T11:10:12.153Z,24.20
2018-05-25T11:12:41.030Z,24.30
2018-05-25T11:15:10.031Z,24.40
2018-05-25T11:17:39.007Z,24.40
2018-05-25T11:20:07.859Z,24.30
2018-05-25T11:22:36.739Z,24.20
2018-05-25T11:25:06.611Z,24.30
2018-05-25T11:27:35.500Z,24.30
2018-05-25T11:30:05.211Z,24.50
2018-05-25T11:32:34.053Z,24.50
2018-05-25T11:35:02.971Z,24.60
2018-05-25T11:37:31.884Z,24.70
2018-05-25T11:40:00.738Z,24.70
2018-05-25T11:42:29.664Z,24.70
2018-05-25T11:44:58.547Z,24.80
2018-05-25T11:47:27.475Z,24.80
2018-05-25T11:49:57.148Z,25.00
2018-05-25T11:52:26.023Z,24.90
2018-05-25T11:54:54.912Z,25.10
2018-05-25T11:57:23.915Z,25.10
2018-05-25T11:59:52.810Z,25.20
2018-05-25T12:02:21.694Z,25.40
2018-05-25T12:04:50.619Z,25.50
2018-05-25T12:07:20.272Z,25.30
2018-05-25T12:09:49.264Z,25.20
2018-05-25T12:12:18.153Z,25.30
2018-05-25T12:14:47.050Z,25.40
2018-05-25T12:17:15.937Z,25.50
2018-05-25T12:19:44.941Z,25.50
2018-05-25T12:22:13.805Z,25.50
2018-05-25T12:24:42.727Z,25.70
2018-05-25T12:27:11.611Z,25.70
2018-05-25T12:29:40.513Z,25.80
2018-05-25T12:32:09.473Z,25.80
2018-05-25T12:34:38.482Z,25.90
2018-05-25T12:37:07.373Z,25.90
2018-05-25T12:39:36.364Z,26.00
2018-05-25T12:42:05.355Z,26.10
2018-05-25T12:44:46.125Z,26.30
2018-05-25T12:47:15.030Z,26.50
2018-05-25T12:49:43.930Z,26.60
2018-05-25T12:52:13.577Z,26.80
2018-05-25T12:54:42.450Z,26.80
2018-05-25T12:57:11.345Z,26.80
2018-05-25T12:59:41.416Z,26.90
2018-05-25T13:02:11.789Z,27.20
2018-05-25T13:04:40.718Z,27.20
2018-05-25T13:07:09.625Z,27.40
2018-05-25T13:09:38.599Z,27.50
2018-05-25T13:12:07.480Z,27.40
2018-05-25T13:14:36.349Z,27.40
2018-05-25T13:17:05.235Z,27.40
2018-05-25T13:19:34.240Z,27.50
2018-05-25T13:22:03.158Z,27.70
2018-05-25T13:24:32.046Z,27.80
2018-05-25T13:27:00.929Z,28.00
2018-05-25T13:29:29.931Z,28.00
2018-05-25T13:31:58.918Z,27.80
2018-05-25T13:34:27.802Z,27.70
2018-05-25T13:36:56.703Z,27.70
2018-05-25T13:39:25.693Z,27.70
2018-05-25T13:41:54.560Z,27.70
2018-05-25T13:44:23.539Z,27.90
2018-05-25T13:46:52.423Z,27.90
2018-05-25T13:49:21.497Z,27.90
2018-05-25T13:51:50.444Z,27.90
2018-05-25T13:54:19.495Z,27.80
2018-05-25T13:56:48.375Z,27.60
2018-05-25T13:59:17.255Z,27.60
2018-05-25T14:01:46.930Z,27.90
2018-05-25T14:04:15.826Z,27.80
2018-05-25T14:06:44.700Z,28.00
2018-05-25T14:09:13.590Z,27.90
2018-05-25T14:11:42.542Z,27.70
2018-05-25T14:14:11.384Z,27.40
2018-05-25T14:16:41.765Z,27.30
2018-05-25T14:19:10.687Z,27.30
2018-05-25T14:21:39.574Z,27.60
2018-05-25T14:24:08.494Z,27.90
2018-05-25T14:26:37.390Z,28.10
2018-05-25T14:29:07.054Z,28.30
2018-05-25T14:31:35.972Z,28.30
2018-05-25T14:34:04.839Z,28.40
2018-05-25T14:36:33.714Z,28.40
2018-05-25T14:39:02.602Z,28.50
2018-05-25T14:41:31.503Z,28.50
2018-05-25T14:44:00.460Z,28.60
2018-05-25T14:46:29.334Z,28.60
2018-05-25T14:48:58.230Z,28.90
2018-05-25T14:51:27.114Z,29.40
2018-05-25T14:53:56.093Z,29.70
2018-05-25T14:56:24.945Z,30.10
2018-05-25T14:58:54.020Z,30.60
2018-05-25T15:01:22.925Z,31.40
2018-05-25T15:03:51.933Z,32.40
2018-05-25T15:06:22.352Z,34.40
2018-05-25T15:08:51.232Z,34.40
2018-05-25T15:11:20.128Z,35.70
2018-05-25T15:13:50.115Z,36.80
2018-05-25T15:16:18.975Z,37.40
2018-05-25T15:18:55.313Z,38.20
2018-05-25T15:21:26.846Z,38.70
2018-05-25T15:23:55.832Z,39.40
2018-05-25T15:26:24.700Z,40.00
2018-05-25T15:28:53.551Z,40.50
2018-05-25T15:31:22.483Z,40.70
2018-05-25T15:33:51.495Z,40.60
2018-05-25T15:36:20.440Z,40.70
2018-05-25T15:38:49.373Z,39.90
2018-05-25T15:41:19.204Z,38.00
2018-05-25T15:43:48.381Z,35.90
2018-05-25T15:46:17.269Z,34.00
2018-05-25T15:48:46.272Z,32.40
2018-05-25T15:51:15.976Z,30.00
2018-05-25T15:53:55.792Z,29.90
2018-05-25T15:56:29.425Z,29.10
2018-05-25T15:59:09.085Z,28.30
2018-05-25T16:01:39.915Z,27.90
2018-05-25T16:04:09.246Z,27.90
2018-05-25T16:06:38.920Z,29.30
2018-05-25T16:09:07.828Z,29.30
2018-05-25T16:11:36.684Z,30.30
2018-05-25T16:14:05.583Z,31.10
2018-05-25T16:16:34.566Z,31.90
2018-05-25T16:19:03.448Z,32.90
2018-05-25T16:21:32.340Z,33.60
2018-05-25T16:24:02.003Z,33.50
2018-05-25T16:26:31.692Z,33.10
2018-05-25T16:29:07.479Z,32.20
2018-05-25T16:31:53.758Z,31.30
2018-05-25T16:34:24.000Z,31.30
2018-05-25T16:36:52.868Z,30.40
2018-05-25T16:39:21.809Z,29.60
2018-05-25T16:41:50.795Z,29.10
2018-05-25T16:44:20.006Z,28.40
2018-05-25T16:46:56.407Z,27.40
2018-05-25T16:49:27.706Z,27.30
2018-05-25T16:52:00.083Z,27.00
2018-05-25T16:54:40.891Z,26.20
2018-05-25T16:57:09.803Z,26.10
2018-05-25T16:59:38.776Z,25.80
2018-05-25T17:02:07.675Z,25.40
2018-05-25T17:04:36.580Z,25.20
2018-05-25T17:07:05.461Z,24.90
2018-05-25T17:09:34.344Z,24.60
2018-05-25T17:12:03.222Z,24.40
2018-05-25T17:14:32.115Z,24.20
2018-05-25T17:17:01.790Z,23.90
2018-05-25T17:19:30.670Z,23.80
2018-05-25T17:21:59.584Z,23.70
2018-05-25T17:24:29.274Z,23.40
2018-05-25T17:26:58.152Z,23.40
2018-05-25T17:29:27.066Z,23.30
2018-05-25T17:31:55.953Z,23.20
2018-05-25T17:34:24.860Z,23.10
2018-05-25T17:36:54.525Z,23.10
2018-05-25T17:39:23.524Z,23.00
2018-05-25T17:41:52.381Z,23.10
2018-05-25T17:44:21.276Z,23.10
2018-05-25T17:46:50.184Z,23.10
2018-05-25T17:49:19.083Z,23.10
2018-05-25T17:51:48.068Z,23.10
2018-05-25T17:54:21.203Z,23.00
2018-05-25T17:56:56.480Z,23.00
2018-05-25T17:59:31.692Z,22.80
2018-05-25T18:02:04.345Z,22.70
2018-05-25T18:04:34.002Z,22.60
2018-05-25T18:07:02.905Z,22.60
2018-05-25T18:09:31.838Z,22.50
2018-05-25T18:12:01.498Z,22.40
2018-05-25T18:14:30.495Z,22.30
2018-05-25T18:16:59.489Z,22.20
2018-05-25T18:19:34.541Z,22.10
2018-05-25T18:22:08.603Z,21.80
2018-05-25T18:24:39.059Z,21.80
2018-05-25T18:27:07.996Z,21.70
2018-05-25T18:29:36.920Z,21.60
2018-05-25T18:32:05.817Z,21.60
2018-05-25T18:34:34.706Z,21.50
2018-05-25T18:37:03.616Z,21.50
2018-05-25T18:39:32.829Z,21.40
2018-05-25T18:42:02.982Z,21.30
2018-05-25T18:44:32.156Z,21.20
2018-05-25T18:47:01.045Z,21.10
2018-05-25T18:49:32.423Z,21.00
2018-05-25T18:52:01.476Z,20.90
2018-05-25T18:54:34.214Z,20.80
2018-05-25T18:57:18.838Z,20.70
2018-05-25T18:59:56.102Z,20.60
2018-05-25T19:02:32.327Z,20.50
2018-05-25T19:05:02.060Z,20.50
2018-05-25T19:07:30.967Z,20.30
2018-05-25T19:09:59.889Z,20.30
2018-05-25T19:12:29.062Z,20.20
2018-05-25T19:14:58.153Z,20.10
2018-05-25T19:17:27.289Z,20.00
2018-05-25T19:19:56.203Z,19.90
2018-05-25T19:22:25.189Z,19.90
2018-05-25T19:24:54.067Z,19.80
2018-05-25T19:27:22.990Z,19.70
2018-05-25T19:29:51.923Z,19.70
2018-05-25T19:32:20.821Z,19.60
2018-05-25T19:34:49.714Z,19.50
2018-05-25T19:37:18.730Z,19.50
2018-05-25T19:39:47.673Z,19.40
2018-05-25T19:42:17.443Z,19.30
2018-05-25T19:44:46.378Z,19.30
2018-05-25T19:47:15.318Z,19.20
2018-05-25T19:49:44.292Z,19.20
2018-05-25T19:52:13.251Z,19.10
2018-05-25T19:54:42.229Z,19.00
2018-05-25T19:57:11.929Z,18.90
2018-05-25T19:59:41.608Z,18.80
2018-05-25T20:02:10.560Z,18.80
2018-05-25T20:04:39.484Z,18.80
2018-05-25T20:07:08.472Z,18.70
2018-05-25T20:09:37.416Z,18.60
2018-05-25T20:12:06.370Z,18.50
2018-05-25T20:14:35.328Z,18.50
2018-05-25T20:17:04.340Z,18.40
2018-05-25T20:19:33.355Z,18.40
2018-05-25T20:22:03.235Z,18.30
2018-05-25T20:24:32.144Z,18.20
2018-05-25T20:27:01.073Z,18.20
2018-05-25T20:29:29.997Z,18.10
2018-05-25T20:31:58.964Z,18.00
2018-05-25T20:34:27.890Z,17.90
2018-05-25T20:36:56.903Z,17.90
2018-05-25T20:39:25.839Z,17.80
2018-05-25T20:41:54.767Z,17.80
2018-05-25T20:44:23.731Z,17.70
2018-05-25T20:46:52.667Z,17.60
2018-05-25T20:49:22.385Z,17.50
2018-05-25T20:51:52.098Z,17.50
2018-05-25T20:54:21.766Z,17.40
2018-05-25T20:56:50.771Z,17.40
2018-05-25T20:59:19.688Z,17.40
2018-05-25T21:01:49.402Z,17.30
2018-05-25T21:04:19.115Z,17.20
2018-05-25T21:06:48.083Z,17.20
2018-05-25T21:09:17.046Z,17.20
2018-05-25T21:11:45.933Z,17.10
2018-05-25T21:14:14.847Z,17.10
2018-05-25T21:16:43.736Z,17.00
2018-05-25T21:19:13.392Z,16.90
2018-05-25T21:21:42.528Z,16.80
2018-05-25T21:24:11.525Z,16.80
2018-05-25T21:26:40.509Z,16.80
2018-05-25T21:29:09.428Z,16.70
2018-05-25T21:31:39.044Z,16.70
2018-05-25T21:34:07.986Z,16.60
2018-05-25T21:36:36.974Z,16.60
2018-05-25T21:39:05.941Z,16.60
2018-05-25T21:41:34.860Z,16.60
2018-05-25T21:44:03.745Z,16.60
2018-05-25T21:46:32.664Z,16.50
2018-05-25T21:49:01.732Z,16.40
2018-05-25T21:51:30.617Z,16.40
2018-05-25T21:53:59.570Z,16.40
2018-05-25T21:56:28.502Z,16.40
2018-05-25T21:58:57.491Z,16.30
2018-05-25T22:01:26.379Z,16.30
2018-05-25T22:03:55.231Z,16.20
2018-05-25T22:06:24.195Z,16.20
2018-05-25T22:08:53.854Z,16.10
2018-05-25T22:11:22.864Z,16.10
2018-05-25T22:13:51.862Z,16.10
2018-05-25T22:16:20.787Z,16.00
2018-05-25T22:18:49.732Z,16.00
2018-05-25T22:21:18.619Z,16.00
2018-05-25T22:23:47.607Z,16.00
2018-05-25T22:26:16.500Z,16.00
2018-05-25T22:28:45.372Z,15.90
2018-05-25T22:31:14.379Z,15.90
2018-05-25T22:33:43.336Z,15.80
2018-05-25T22:36:12.233Z,15.80
2018-05-25T22:38:41.220Z,15.70
2018-05-25T22:41:10.149Z,15.70
2018-05-25T22:43:51.021Z,15.70
2018-05-25T22:46:31.916Z,15.60
2018-05-25T22:49:13.659Z,15.60
2018-05-25T22:51:54.541Z,15.60
2018-05-25T22:54:33.515Z,15.50
2018-05-25T22:57:03.252Z,15.40
2018-05-25T22:59:32.173Z,15.40
2018-05-25T23:02:01.076Z,15.40
2018-05-25T23:04:30.047Z,15.30
2018-05-25T23:06:58.891Z,15.40
2018-05-25T23:09:27.774Z,15.30
2018-05-25T23:11:56.712Z,15.20
2018-05-25T23:14:25.704Z,15.20
2018-05-25T23:16:54.659Z,15.20
2018-05-25T23:19:23.563Z,15.10
2018-05-25T23:21:52.472Z,15.20
2018-05-25T23:24:21.336Z,15.10
2018-05-25T23:26:50.249Z,15.10
2018-05-25T23:29:19.203Z,15.10
2018-05-25T23:31:48.074Z,15.10
2018-05-25T23:34:17.023Z,15.00
2018-05-25T23:36:46.011Z,15.00
2018-05-25T23:39:14.902Z,15.00
2018-05-25T23:41:43.791Z,15.00
2018-05-25T23:44:12.758Z,15.00
2018-05-25T23:46:41.745Z,15.00
2018-05-25T23:49:10.726Z,15.00
2018-05-25T23:51:39.783Z,15.00
2018-05-25T23:54:09.466Z,14.90
2018-05-25T23:56:38.355Z,14.90
2018-05-25T23:59:07.243Z,14.90
